createdAt,value
2018-07-13T00:00:31.811Z,8.60
2018-07-13T00:01:31.769Z,6.80
2018-07-13T00:02:31.644Z,9.00
2018-07-13T00:05:13.788Z,6.80
2018-07-13T00:06:13.733Z,8.40
2018-07-13T00:07:13.634Z,9.60
2018-07-13T00:08:13.540Z,10.70
2018-07-13T00:09:13.459Z,9.30
2018-07-13T00:10:13.387Z,11.10
2018-07-13T00:11:13.309Z,9.00
2018-07-13T00:12:13.282Z,9.80
2018-07-13T00:13:13.148Z,8.40
2018-07-13T00:14:13.077Z,9.10
2018-07-13T00:15:12.988Z,9.40
2018-07-13T00:16:12.933Z,9.10
2018-07-13T00:17:12.859Z,11.40
2018-07-13T00:18:12.759Z,8.90
2018-07-13T00:19:12.675Z,9.60
2018-07-13T00:20:12.605Z,7.40
2018-07-13T00:21:12.518Z,12.10
2018-07-13T00:22:13.481Z,9.20
2018-07-13T00:23:12.361Z,12.60
2018-07-13T00:24:12.291Z,8.70
2018-07-13T00:26:54.320Z,10.20
2018-07-13T00:27:54.222Z,10.50
2018-07-13T00:28:54.130Z,9.10
2018-07-13T00:29:54.073Z,8.90
2018-07-13T00:30:53.978Z,8.90
2018-07-13T00:31:53.890Z,9.50
2018-07-13T00:32:53.835Z,11.90
2018-07-13T00:33:53.727Z,9.10
2018-07-13T00:34:53.664Z,9.40
2018-07-13T00:35:53.574Z,11.20
2018-07-13T00:36:53.497Z,9.40
2018-07-13T00:37:53.437Z,10.10
2018-07-13T00:40:35.308Z,12.00
2018-07-13T00:41:35.207Z,11.50
2018-07-13T00:42:35.134Z,10.00
2018-07-13T00:43:35.080Z,7.20
2018-07-13T00:44:35.009Z,10.30
2018-07-13T00:45:34.903Z,11.50
2018-07-13T00:46:34.815Z,9.30
2018-07-13T00:47:34.766Z,10.40
2018-07-13T00:48:34.657Z,12.00
2018-07-13T00:49:34.582Z,9.20
2018-07-13T00:50:34.499Z,8.30
2018-07-13T00:53:16.804Z,8.80
2018-07-13T00:54:16.729Z,10.70
2018-07-13T00:55:16.630Z,9.50
2018-07-13T00:57:58.814Z,12.00
2018-07-13T00:58:58.720Z,7.70
2018-07-13T00:59:58.630Z,8.50
2018-07-13T01:00:58.567Z,10.40
2018-07-13T01:01:58.479Z,11.50
2018-07-13T01:02:59.422Z,9.60
2018-07-13T01:03:58.315Z,8.60
2018-07-13T01:04:58.246Z,11.30
2018-07-13T01:05:58.180Z,10.90
2018-07-13T01:06:58.089Z,9.80
2018-07-13T01:26:21.756Z,10.20
2018-07-13T01:27:20.642Z,10.80
2018-07-13T01:28:20.574Z,10.10
2018-07-13T01:29:20.509Z,9.30
2018-07-13T01:30:20.412Z,12.20
2018-07-13T01:31:20.322Z,9.80
2018-07-13T01:32:20.249Z,14.40
2018-07-13T01:33:20.171Z,10.80
2018-07-13T01:34:21.113Z,12.40
2018-07-13T01:35:20.008Z,12.10
2018-07-13T01:36:19.950Z,10.00
2018-07-13T01:37:19.850Z,10.90
2018-07-13T01:38:19.777Z,10.50
2018-07-13T01:39:19.700Z,9.60
2018-07-13T01:40:19.649Z,13.70
2018-07-13T01:41:19.549Z,10.80
2018-07-13T01:42:19.463Z,13.20
2018-07-13T01:43:19.378Z,11.10
2018-07-13T01:44:19.304Z,12.60
2018-07-13T01:45:19.243Z,13.20
2018-07-13T01:46:19.333Z,13.50
2018-07-13T01:47:19.087Z,9.30
2018-07-13T01:48:18.979Z,12.30
2018-07-13T01:49:18.904Z,14.00
2018-07-13T01:50:18.821Z,10.90
2018-07-13T01:51:18.777Z,11.20
2018-07-13T01:52:18.680Z,12.30
2018-07-13T01:53:20.330Z,12.40
2018-07-13T01:54:18.514Z,13.10
2018-07-13T01:55:18.423Z,12.20
2018-07-13T01:56:19.420Z,11.10
2018-07-13T01:57:18.496Z,12.00
2018-07-13T01:58:18.303Z,11.20
2018-07-13T01:59:18.426Z,14.00
2018-07-13T02:00:18.052Z,13.00
2018-07-13T02:01:17.981Z,13.00
2018-07-13T02:02:17.889Z,11.50
2018-07-13T02:03:17.786Z,11.40
2018-07-13T02:04:17.723Z,12.00
2018-07-13T02:05:17.639Z,9.80
2018-07-13T02:06:17.607Z,12.10
2018-07-13T02:07:17.477Z,10.90
2018-07-13T02:08:17.425Z,13.90
2018-07-13T02:09:17.326Z,14.70
2018-07-13T02:10:17.247Z,11.30
2018-07-13T02:11:17.173Z,11.50
2018-07-13T02:12:17.118Z,13.10
2018-07-13T02:13:17.033Z,12.60
2018-07-13T02:14:16.946Z,12.90
2018-07-13T02:15:16.859Z,13.50
2018-07-13T02:17:58.851Z,10.20
2018-07-13T02:18:58.742Z,13.50
2018-07-13T02:19:58.663Z,12.70
2018-07-13T02:20:58.578Z,12.00
2018-07-13T02:21:58.499Z,18.00
2018-07-13T02:22:58.431Z,14.40
2018-07-13T02:23:58.364Z,13.60
2018-07-13T02:24:58.265Z,13.40
2018-07-13T02:25:58.176Z,14.60
2018-07-13T02:28:40.350Z,13.50
2018-07-13T02:29:40.242Z,14.30
2018-07-13T02:30:40.152Z,13.10
2018-07-13T02:33:22.345Z,15.20
2018-07-13T02:34:24.240Z,15.80
2018-07-13T02:35:22.189Z,12.20
2018-07-13T02:38:04.325Z,12.30
2018-07-13T02:39:04.274Z,11.10
2018-07-13T02:40:04.162Z,12.70
2018-07-13T02:41:04.106Z,13.40
2018-07-13T02:42:04.000Z,13.70
2018-07-13T02:43:03.929Z,13.30
2018-07-13T02:44:03.847Z,13.40
2018-07-13T02:46:45.844Z,11.90
2018-07-13T02:47:45.747Z,11.40
2018-07-13T02:48:45.657Z,13.10
2018-07-13T02:49:45.610Z,15.30
2018-07-13T02:50:45.525Z,13.50
2018-07-13T02:51:45.426Z,12.90
2018-07-13T02:52:45.341Z,12.80
2018-07-13T02:53:45.275Z,15.30
2018-07-13T02:54:45.183Z,12.30
2018-07-13T02:55:45.133Z,13.90
2018-07-13T02:56:45.040Z,11.60
2018-07-13T02:59:27.334Z,15.10
2018-07-13T03:00:28.338Z,11.50
2018-07-13T03:01:27.165Z,13.40
2018-07-13T03:04:09.321Z,18.40
2018-07-13T03:05:09.318Z,14.00
2018-07-13T03:06:09.178Z,11.40
2018-07-13T03:07:09.093Z,12.60
2018-07-13T03:08:09.009Z,11.40
2018-07-13T03:09:08.946Z,14.90
2018-07-13T03:10:08.852Z,14.60
2018-07-13T03:11:08.809Z,13.50
2018-07-13T03:12:08.692Z,13.80
2018-07-13T03:13:08.620Z,13.20
2018-07-13T03:14:08.535Z,16.80
2018-07-13T03:15:08.479Z,16.10
2018-07-13T03:16:08.405Z,15.10
2018-07-13T03:19:15.839Z,15.00
2018-07-13T03:20:15.749Z,15.20
2018-07-13T03:21:15.703Z,14.60
2018-07-13T03:22:15.640Z,16.70
2018-07-13T03:23:15.523Z,13.80
2018-07-13T03:24:15.431Z,16.30
2018-07-13T03:25:15.362Z,13.50
2018-07-13T03:26:15.275Z,14.30
2018-07-13T03:27:15.292Z,16.70
2018-07-13T03:28:15.123Z,14.50
2018-07-13T03:30:57.338Z,14.20
2018-07-13T03:31:57.281Z,14.50
2018-07-13T03:32:57.178Z,15.50
2018-07-13T03:33:57.118Z,13.60
2018-07-13T03:34:57.050Z,16.20
2018-07-13T03:35:56.954Z,15.40
2018-07-13T03:36:56.885Z,16.20
2018-07-13T03:37:57.815Z,14.40
2018-07-13T03:38:56.702Z,14.90
2018-07-13T03:39:56.637Z,15.80
2018-07-13T03:40:56.541Z,16.00
2018-07-13T03:41:56.465Z,14.80
2018-07-13T03:42:56.420Z,14.10
2018-07-13T03:43:56.315Z,16.00
2018-07-13T03:44:56.226Z,15.70
2018-07-13T03:47:38.357Z,15.50
2018-07-13T03:50:20.347Z,15.40
2018-07-13T03:51:20.295Z,12.50
2018-07-13T03:52:20.181Z,15.10
2018-07-13T03:53:20.101Z,15.30
2018-07-13T03:54:20.024Z,14.80
2018-07-13T04:20:01.389Z,15.70
2018-07-13T04:21:01.280Z,16.40
2018-07-13T04:22:01.200Z,14.50
2018-07-13T04:23:01.124Z,14.50
2018-07-13T04:24:01.035Z,16.60
2018-07-13T04:25:00.976Z,13.20
2018-07-13T04:27:42.851Z,16.80
2018-07-13T04:28:42.789Z,14.10
2018-07-13T04:29:42.689Z,16.90
2018-07-13T04:30:42.741Z,16.20
2018-07-13T04:31:42.538Z,14.40
2018-07-13T04:32:42.509Z,53.70
2018-07-13T04:33:42.380Z,26.10
2018-07-13T04:34:42.329Z,41.20
2018-07-13T04:35:42.240Z,16.90
2018-07-13T04:36:42.145Z,15.70
2018-07-13T04:37:42.060Z,16.50
2018-07-13T04:38:42.002Z,16.50
2018-07-13T04:39:41.938Z,14.90
2018-07-13T04:40:42.898Z,14.00
2018-07-13T04:41:41.746Z,18.50
2018-07-13T04:42:41.690Z,18.00
2018-07-13T04:43:42.472Z,16.10
2018-07-13T04:46:24.481Z,18.10
2018-07-13T04:49:05.869Z,15.00
2018-07-13T04:50:05.924Z,14.40
2018-07-13T04:51:05.732Z,17.40
2018-07-13T04:52:05.637Z,13.30
2018-07-13T04:53:05.541Z,12.00
2018-07-13T04:54:07.472Z,15.20
2018-07-13T04:55:05.395Z,13.80
2018-07-13T04:56:05.339Z,16.90
2018-07-13T04:57:05.225Z,19.00
2018-07-13T04:58:05.165Z,14.80
2018-07-13T04:59:05.084Z,14.60
2018-07-13T05:00:04.997Z,15.90
2018-07-13T05:01:04.954Z,14.90
2018-07-13T05:02:04.834Z,15.20
2018-07-13T05:03:04.753Z,16.90
2018-07-13T05:04:04.697Z,16.30
2018-07-13T05:05:04.599Z,16.90
2018-07-13T05:06:04.612Z,16.40
2018-07-13T05:07:04.479Z,16.50
2018-07-13T05:08:04.515Z,17.30
2018-07-13T05:09:04.295Z,14.60
2018-07-13T05:10:04.205Z,13.80
2018-07-13T05:11:04.152Z,16.40
2018-07-13T05:12:04.074Z,13.80
2018-07-13T05:13:03.959Z,13.80
2018-07-13T05:14:03.918Z,17.90
2018-07-13T05:15:03.804Z,14.50
2018-07-13T05:16:03.731Z,14.50
2018-07-13T05:17:03.679Z,18.00
2018-07-13T05:18:03.563Z,13.80
2018-07-13T05:19:03.487Z,14.40
2018-07-13T05:20:03.404Z,15.30
2018-07-13T05:21:03.314Z,15.40
2018-07-13T05:22:03.286Z,15.40
2018-07-13T05:23:03.174Z,13.90
2018-07-13T05:24:03.099Z,16.40
2018-07-13T05:25:03.003Z,14.60
2018-07-13T05:26:02.929Z,15.50
2018-07-13T05:27:02.853Z,14.20
2018-07-13T05:28:02.804Z,16.70
2018-07-13T05:29:02.689Z,14.90
2018-07-13T05:30:02.637Z,19.00
2018-07-13T05:31:02.525Z,14.00
2018-07-13T05:32:02.457Z,14.90
2018-07-13T05:33:02.394Z,15.70
2018-07-13T05:34:02.293Z,15.60
2018-07-13T05:35:02.207Z,17.60
2018-07-13T05:36:02.138Z,17.30
2018-07-13T05:37:02.076Z,19.50
2018-07-13T05:38:02.002Z,15.90
2018-07-13T05:39:01.905Z,18.30
2018-07-13T05:40:01.833Z,16.20
2018-07-13T05:41:01.744Z,16.50
2018-07-13T05:42:01.674Z,15.30
2018-07-13T05:43:01.602Z,16.40
2018-07-13T05:45:43.879Z,15.60
2018-07-13T05:46:43.805Z,13.20
2018-07-13T05:47:43.740Z,17.60
2018-07-13T06:14:05.385Z,16.10
2018-07-13T06:15:05.386Z,17.50
2018-07-13T06:16:05.207Z,18.10
2018-07-13T06:17:05.137Z,14.60
2018-07-13T06:18:05.045Z,16.80
2018-07-13T06:19:04.985Z,16.90
2018-07-13T06:20:04.901Z,14.20
2018-07-13T06:21:04.848Z,14.50
2018-07-13T06:22:04.752Z,16.00
2018-07-13T06:23:04.657Z,14.10
2018-07-13T06:24:04.586Z,16.80
2018-07-13T06:25:04.497Z,17.60
2018-07-13T06:26:04.444Z,15.10
2018-07-13T06:27:04.397Z,17.00
2018-07-13T06:28:04.264Z,17.40
2018-07-13T06:29:04.184Z,14.70
2018-07-13T06:30:04.101Z,14.90
2018-07-13T06:31:04.068Z,16.40
2018-07-13T06:32:03.959Z,17.20
2018-07-13T06:33:03.879Z,14.20
2018-07-13T06:34:03.799Z,14.60
2018-07-13T06:35:03.749Z,14.10
2018-07-13T06:36:03.650Z,14.00
2018-07-13T06:37:03.544Z,14.20
2018-07-13T06:38:03.496Z,13.40
2018-07-13T06:39:03.394Z,14.10
2018-07-13T06:40:03.326Z,14.90
2018-07-13T06:41:03.282Z,17.10
2018-07-13T06:42:03.153Z,14.90
2018-07-13T06:43:03.088Z,18.80
2018-07-13T06:44:03.042Z,14.90
2018-07-13T06:45:02.937Z,17.10
2018-07-13T06:46:02.851Z,13.90
2018-07-13T06:47:02.808Z,16.20
2018-07-13T06:48:02.699Z,13.90
2018-07-13T06:49:02.631Z,14.50
2018-07-13T06:50:02.549Z,17.60
2018-07-13T06:51:02.500Z,15.10
2018-07-13T06:52:02.434Z,16.70
2018-07-13T06:53:02.354Z,13.30
2018-07-13T06:54:02.248Z,15.60
2018-07-13T06:55:02.181Z,15.90
2018-07-13T06:56:02.093Z,15.50
2018-07-13T06:57:02.075Z,17.30
2018-07-13T06:58:01.943Z,13.50
2018-07-13T07:00:43.916Z,12.10
2018-07-13T07:03:25.912Z,15.20
2018-07-13T07:04:25.830Z,14.70
2018-07-13T07:05:25.752Z,13.00
2018-07-13T07:31:47.664Z,11.50
2018-07-13T07:34:30.102Z,9.80
2018-07-13T07:35:29.841Z,11.80
2018-07-13T07:36:29.793Z,9.80
2018-07-13T07:37:29.705Z,9.00
2018-07-13T07:38:29.728Z,8.50
2018-07-13T07:39:29.658Z,8.40
2018-07-13T07:40:29.491Z,6.90
2018-07-13T07:41:29.450Z,8.50
2018-07-13T07:42:29.347Z,8.90
2018-07-13T07:43:29.282Z,9.80
2018-07-13T07:44:29.208Z,7.70
2018-07-13T07:45:29.147Z,11.50
2018-07-13T07:46:29.095Z,9.60
2018-07-13T07:47:29.054Z,9.50
2018-07-13T07:48:28.932Z,10.90
2018-07-13T07:49:28.878Z,10.20
2018-07-13T07:50:28.796Z,8.60
2018-07-13T07:51:28.738Z,11.20
2018-07-13T07:52:28.659Z,10.90
2018-07-13T07:53:28.594Z,7.50
2018-07-13T07:54:28.550Z,8.80
2018-07-13T07:55:28.453Z,9.50
2018-07-13T07:56:28.406Z,8.00
2018-07-13T07:57:28.377Z,9.90
2018-07-13T08:02:51.348Z,8.00
2018-07-13T08:03:51.282Z,7.60
2018-07-13T08:04:51.187Z,8.00
2018-07-13T08:05:51.138Z,6.50
2018-07-13T08:06:52.243Z,8.60
2018-07-13T08:07:50.987Z,10.10
2018-07-13T08:08:50.932Z,8.10
2018-07-13T08:09:50.829Z,6.40
2018-07-13T08:10:50.764Z,8.00
2018-07-13T08:11:50.688Z,7.70
2018-07-13T08:12:51.690Z,7.00
2018-07-13T08:13:50.755Z,7.50
2018-07-13T08:16:32.443Z,6.20
2018-07-13T08:17:32.410Z,6.20
2018-07-13T08:18:32.293Z,7.40
2018-07-13T08:19:32.266Z,7.20
2018-07-13T08:20:33.003Z,5.40
2018-07-13T08:21:32.086Z,6.10
2018-07-13T08:22:32.196Z,7.60
2018-07-13T08:23:32.001Z,7.30
2018-07-13T08:24:31.889Z,6.60
2018-07-13T08:25:31.849Z,8.00
2018-07-13T08:26:31.767Z,5.90
2018-07-13T08:27:31.688Z,4.80
2018-07-13T08:28:31.624Z,6.90
2018-07-13T08:29:31.555Z,6.00
2018-07-13T08:30:31.477Z,4.80
2018-07-13T08:31:31.414Z,7.60
2018-07-13T08:32:31.349Z,6.50
2018-07-13T08:33:31.313Z,6.30
2018-07-13T08:34:31.217Z,5.00
2018-07-13T08:35:31.156Z,6.60
2018-07-13T08:36:31.081Z,7.00
2018-07-13T08:37:31.109Z,6.70
2018-07-13T08:38:31.008Z,6.60
2018-07-13T08:39:30.877Z,6.70
2018-07-13T08:40:30.825Z,5.80
2018-07-13T08:41:31.504Z,6.80
2018-07-13T08:42:30.674Z,6.10
2018-07-13T08:43:30.800Z,7.60
2018-07-13T08:44:30.572Z,6.20
2018-07-13T08:45:30.497Z,5.80
2018-07-13T08:46:30.403Z,3.90
2018-07-13T08:47:30.374Z,7.00
2018-07-13T08:48:30.279Z,7.70
2018-07-13T08:49:30.246Z,6.00
2018-07-13T08:50:30.196Z,7.80
2018-07-13T08:53:12.433Z,6.50
2018-07-13T08:54:12.409Z,5.90
2018-07-13T08:55:12.342Z,10.00
2018-07-13T08:56:12.319Z,7.40
2018-07-13T08:57:12.211Z,6.80
2018-07-13T08:58:12.128Z,7.80
2018-07-13T08:59:12.042Z,7.50
2018-07-13T09:00:13.093Z,8.00
2018-07-13T09:01:11.914Z,8.30
2018-07-13T09:02:11.868Z,9.10
2018-07-13T09:03:11.784Z,8.40
2018-07-13T09:04:11.791Z,9.10
2018-07-13T09:05:11.714Z,8.90
2018-07-13T09:06:11.581Z,6.90
2018-07-13T09:07:11.510Z,7.20
2018-07-13T09:08:11.472Z,8.30
2018-07-13T09:09:11.392Z,8.70
2018-07-13T09:10:11.347Z,7.70
2018-07-13T09:11:11.253Z,6.70
2018-07-13T09:12:11.226Z,8.30
2018-07-13T09:13:11.143Z,8.20
2018-07-13T09:14:11.063Z,6.90
2018-07-13T09:15:11.016Z,6.40
2018-07-13T09:16:10.930Z,7.10
2018-07-13T09:17:10.876Z,6.90
2018-07-13T09:18:10.866Z,7.20
2018-07-13T09:19:10.732Z,6.60
2018-07-13T09:20:10.715Z,7.90
2018-07-13T09:21:10.601Z,7.70
2018-07-13T09:22:10.543Z,11.10
2018-07-13T09:23:10.466Z,8.90
2018-07-13T09:24:10.475Z,8.10
2018-07-13T09:25:10.353Z,8.40
2018-07-13T09:26:11.299Z,6.80
2018-07-13T09:27:10.233Z,5.80
2018-07-13T09:28:10.166Z,8.20
2018-07-13T09:29:10.143Z,7.60
2018-07-13T09:30:10.038Z,10.20
2018-07-13T09:31:09.978Z,5.80
2018-07-13T09:32:09.991Z,5.30
2018-07-13T09:33:09.835Z,5.60
2018-07-13T09:34:09.812Z,6.20
2018-07-13T09:35:09.691Z,7.70
2018-07-13T09:36:09.759Z,5.80
2018-07-13T09:37:15.617Z,7.30
2018-07-13T09:38:09.499Z,8.60
2018-07-13T09:39:09.424Z,10.50
2018-07-13T09:40:09.367Z,11.90
2018-07-13T09:41:09.481Z,10.40
2018-07-13T09:43:51.462Z,10.60
2018-07-13T09:44:51.426Z,7.70
2018-07-13T09:45:51.387Z,7.70
2018-07-13T09:46:51.365Z,7.20
2018-07-13T09:47:51.204Z,9.80
2018-07-13T09:50:33.491Z,10.90
2018-07-13T09:51:33.462Z,7.80
2018-07-13T09:52:33.356Z,8.50
2018-07-13T09:53:33.307Z,9.50
2018-07-13T09:54:33.236Z,9.60
2018-07-13T09:55:33.167Z,8.80
2018-07-13T09:56:33.147Z,9.10
2018-07-13T09:59:14.981Z,7.90
2018-07-13T10:01:56.997Z,9.10
2018-07-13T10:04:38.967Z,10.80
2018-07-13T10:05:38.980Z,8.30
2018-07-13T10:06:38.864Z,7.80
2018-07-13T10:07:38.816Z,11.20
2018-07-13T10:08:38.739Z,8.50
2018-07-13T10:27:36.897Z,10.60
2018-07-13T10:30:19.032Z,11.30
2018-07-13T10:31:18.914Z,14.80
2018-07-13T10:32:18.859Z,10.80
2018-07-13T10:35:01.000Z,10.50
2018-07-13T10:37:43.014Z,10.80
2018-07-13T10:38:42.933Z,12.10
2018-07-13T10:39:42.866Z,12.50
2018-07-13T10:42:25.007Z,11.50
2018-07-13T10:43:24.930Z,10.70
2018-07-13T10:44:24.890Z,11.50
2018-07-13T10:45:24.810Z,9.70
2018-07-13T10:46:24.744Z,10.40
2018-07-13T10:47:24.702Z,11.20
2018-07-13T10:48:24.619Z,11.40
2018-07-13T10:49:24.553Z,8.50
2018-07-13T10:50:24.499Z,13.70
2018-07-13T10:51:24.483Z,10.00
2018-07-13T10:52:24.352Z,10.60
2018-07-13T10:53:24.305Z,9.10
2018-07-13T10:54:24.265Z,11.00
2018-07-13T10:55:24.235Z,11.40
2018-07-13T10:56:24.116Z,10.60
2018-07-13T10:57:24.068Z,11.70
2018-07-13T10:58:23.998Z,11.20
2018-07-13T10:59:24.043Z,11.20
2018-07-13T11:00:23.862Z,10.60
2018-07-13T11:01:23.806Z,11.90
2018-07-13T11:02:23.734Z,9.20
2018-07-13T11:03:23.737Z,9.20
2018-07-13T11:04:23.645Z,11.60
2018-07-13T11:05:23.587Z,10.10
2018-07-13T11:06:23.519Z,9.60
2018-07-13T11:09:05.494Z,9.20
2018-07-13T11:10:05.439Z,11.30
2018-07-13T11:11:05.415Z,9.50
2018-07-13T11:13:47.540Z,10.90
2018-07-13T11:14:47.453Z,8.40
2018-07-13T11:15:47.374Z,8.80
2018-07-13T11:19:30.552Z,11.20
2018-07-13T11:20:30.445Z,8.10
2018-07-13T11:21:30.413Z,10.80
2018-07-13T11:22:30.318Z,10.50
2018-07-13T11:23:30.244Z,6.60
2018-07-13T11:24:30.197Z,10.20
2018-07-13T11:25:30.127Z,13.40
2018-07-13T11:26:30.109Z,10.20
2018-07-13T11:27:29.995Z,12.40
2018-07-13T11:28:29.978Z,11.10
2018-07-13T11:29:29.907Z,10.90
2018-07-13T11:30:29.812Z,10.70
2018-07-13T11:31:29.847Z,13.40
2018-07-13T11:32:29.722Z,9.40
2018-07-13T11:33:29.616Z,12.70
2018-07-13T11:34:29.560Z,8.80
2018-07-13T11:35:30.529Z,9.00
2018-07-13T11:36:29.451Z,9.30
2018-07-13T11:37:29.374Z,9.60
2018-07-13T11:38:29.313Z,12.20
2018-07-13T11:39:29.242Z,9.50
2018-07-13T11:40:29.180Z,11.00
2018-07-13T11:41:29.138Z,7.90
2018-07-13T11:42:29.118Z,8.40
2018-07-13T11:43:28.990Z,7.60
2018-07-13T11:44:28.926Z,10.10
2018-07-13T11:45:29.906Z,8.00
2018-07-13T11:46:28.790Z,9.50
2018-07-13T11:47:28.775Z,8.40
2018-07-13T11:48:28.672Z,8.80
2018-07-13T11:49:28.616Z,9.90
2018-07-13T11:50:28.556Z,9.70
2018-07-13T11:51:28.487Z,13.00
2018-07-13T11:52:28.442Z,9.00
2018-07-13T11:55:10.511Z,11.40
2018-07-13T11:56:10.452Z,9.20
2018-07-13T11:57:10.419Z,8.70
2018-07-13T11:59:52.519Z,8.60
2018-07-13T12:00:52.519Z,7.40
2018-07-13T12:01:52.497Z,7.40
2018-07-13T12:02:52.317Z,10.00
2018-07-13T12:03:52.241Z,9.10
2018-07-13T12:04:52.194Z,7.80
2018-07-13T12:05:52.133Z,9.60
2018-07-13T12:06:52.061Z,9.20
2018-07-13T12:07:52.032Z,9.90
2018-07-13T12:08:51.919Z,8.70
2018-07-13T12:09:51.859Z,9.60
2018-07-13T12:10:51.803Z,7.60
2018-07-13T12:11:51.751Z,6.40
2018-07-13T12:12:51.676Z,7.80
2018-07-13T12:13:51.588Z,7.20
2018-07-13T12:16:33.522Z,6.90
2018-07-13T12:19:15.552Z,7.70
2018-07-13T12:20:15.464Z,13.00
2018-07-13T12:21:15.439Z,7.40
2018-07-13T12:22:15.317Z,8.30
2018-07-13T12:23:15.248Z,6.20
2018-07-13T12:24:15.214Z,6.30
2018-07-13T12:25:15.104Z,9.50
2018-07-13T12:26:15.033Z,10.10
2018-07-13T12:27:14.958Z,8.30
2018-07-13T12:28:14.886Z,8.70
2018-07-13T12:29:14.815Z,7.80
2018-07-13T12:30:14.745Z,8.60
2018-07-13T12:31:14.670Z,10.70
2018-07-13T12:33:56.529Z,9.50
2018-07-13T12:36:38.519Z,8.20
2018-07-13T12:39:20.538Z,10.50
2018-07-13T12:40:20.459Z,10.70
2018-07-13T12:41:20.378Z,12.50
2018-07-13T12:42:20.301Z,11.50
2018-07-13T12:43:20.250Z,9.10
2018-07-13T12:44:20.187Z,10.60
2018-07-13T12:45:20.079Z,9.30
2018-07-13T12:46:20.028Z,9.80
2018-07-13T12:47:19.950Z,8.30
2018-07-13T12:50:02.074Z,11.80
2018-07-13T12:51:01.962Z,8.70
2018-07-13T12:52:01.877Z,14.50
2018-07-13T12:54:44.155Z,8.00
2018-07-13T12:55:43.992Z,9.70
2018-07-13T12:56:43.892Z,6.70
2018-07-13T12:57:43.819Z,8.00
2018-07-13T12:58:43.752Z,7.30
2018-07-13T12:59:43.711Z,8.00
2018-07-13T13:00:43.712Z,12.10
2018-07-13T13:03:25.543Z,9.10
2018-07-13T13:04:25.491Z,8.30
2018-07-13T13:05:25.479Z,7.60
2018-07-13T13:06:25.355Z,6.60
2018-07-13T13:07:25.246Z,8.00
2018-07-13T13:08:25.199Z,7.50
2018-07-13T13:09:25.121Z,8.60
2018-07-13T13:10:26.092Z,7.40
2018-07-13T13:11:24.968Z,6.60
2018-07-13T13:12:24.893Z,5.80
2018-07-13T13:13:24.825Z,7.80
2018-07-13T13:14:24.821Z,9.40
2018-07-13T13:15:24.735Z,7.40
2018-07-13T13:16:25.639Z,7.20
2018-07-13T13:17:24.532Z,6.20
2018-07-13T13:18:24.459Z,5.90
2018-07-13T13:19:24.398Z,6.10
2018-07-13T13:20:24.333Z,4.40
2018-07-13T13:21:24.258Z,5.80
2018-07-13T13:22:24.179Z,5.40
2018-07-13T13:23:24.103Z,5.20
2018-07-13T13:24:24.053Z,6.70
2018-07-13T13:25:23.941Z,6.40
2018-07-13T13:26:23.908Z,6.60
2018-07-13T13:27:23.805Z,7.80
2018-07-13T13:28:23.743Z,4.90
2018-07-13T13:29:23.683Z,5.90
2018-07-13T13:32:05.576Z,5.10
2018-07-13T13:34:47.560Z,4.40
2018-07-13T13:35:47.481Z,5.70
2018-07-13T13:36:47.519Z,7.60
2018-07-13T13:37:47.350Z,6.20
2018-07-13T13:38:47.253Z,5.20
2018-07-13T13:39:47.194Z,5.70
2018-07-13T13:40:47.119Z,6.00
2018-07-13T13:41:47.065Z,6.20
2018-07-13T13:42:46.971Z,5.20
2018-07-13T13:43:46.902Z,6.80
2018-07-13T13:44:46.820Z,5.60
2018-07-13T13:45:46.763Z,7.70
2018-07-13T13:46:46.704Z,6.10
2018-07-13T13:47:47.622Z,8.00
2018-07-13T13:48:46.559Z,6.20
2018-07-13T13:49:46.474Z,5.20
2018-07-13T13:50:46.376Z,3.80
2018-07-13T13:51:46.326Z,4.10
2018-07-13T13:52:46.225Z,4.20
2018-07-13T13:55:28.555Z,4.80
2018-07-13T13:56:28.469Z,5.90
2018-07-13T13:57:28.433Z,4.00
2018-07-13T13:58:28.385Z,5.70
2018-07-13T13:59:28.272Z,4.50
2018-07-13T14:02:10.568Z,4.70
2018-07-13T14:03:10.513Z,4.90
2018-07-13T14:04:10.438Z,5.20
2018-07-13T14:05:10.399Z,5.40
2018-07-13T14:06:10.268Z,5.10
2018-07-13T14:07:10.193Z,5.10
2018-07-13T14:08:10.150Z,3.30
2018-07-13T14:10:52.061Z,6.00
2018-07-13T14:11:51.996Z,4.70
2018-07-13T14:12:51.937Z,5.20
2018-07-13T14:13:51.877Z,5.40
2018-07-13T14:14:51.827Z,4.30
2018-07-13T14:15:51.704Z,3.50
2018-07-13T14:16:51.635Z,3.70
2018-07-13T14:17:51.570Z,4.70
2018-07-13T14:18:51.526Z,4.50
2018-07-13T14:19:51.426Z,3.70
2018-07-13T14:20:51.330Z,4.20
2018-07-13T14:21:51.289Z,3.70
2018-07-13T14:22:51.186Z,5.50
2018-07-13T14:23:51.155Z,4.70
2018-07-13T14:24:51.049Z,5.00
2018-07-13T14:25:51.004Z,4.70
2018-07-13T14:26:50.930Z,4.90
2018-07-13T14:27:50.836Z,3.60
2018-07-13T14:28:50.773Z,4.10
2018-07-13T14:29:50.745Z,4.60
2018-07-13T14:30:50.599Z,5.60
2018-07-13T14:31:50.531Z,4.10
2018-07-13T14:32:50.451Z,4.00
2018-07-13T14:33:50.420Z,4.10
2018-07-13T14:34:50.305Z,5.40
2018-07-13T14:35:50.241Z,4.30
2018-07-13T14:36:50.168Z,4.40
2018-07-13T14:37:50.112Z,5.60
2018-07-13T14:38:50.023Z,8.70
2018-07-13T14:39:51.007Z,6.90
2018-07-13T14:40:49.907Z,6.50
2018-07-13T14:41:49.823Z,5.60
2018-07-13T14:42:49.737Z,3.60
2018-07-13T14:43:49.705Z,6.00
2018-07-13T14:44:49.699Z,5.40
2018-07-13T14:45:49.553Z,3.90
2018-07-13T14:46:49.534Z,6.80
2018-07-13T14:47:49.380Z,4.80
2018-07-13T14:48:49.293Z,6.00
2018-07-13T14:49:49.264Z,5.10
2018-07-13T14:50:49.177Z,4.90
2018-07-13T14:51:49.088Z,5.30
2018-07-13T14:52:49.010Z,4.50
2018-07-13T14:53:49.982Z,5.70
2018-07-13T14:54:48.871Z,4.90
2018-07-13T14:55:48.804Z,5.40
2018-07-13T14:56:48.754Z,4.70
2018-07-13T14:57:48.657Z,6.50
2018-07-13T14:58:48.584Z,5.50
2018-07-13T14:59:48.607Z,8.70
2018-07-13T15:00:48.452Z,4.90
2018-07-13T15:01:48.376Z,4.40
2018-07-13T15:02:48.303Z,3.60
2018-07-13T15:03:48.265Z,3.50
2018-07-13T15:04:48.130Z,4.90
2018-07-13T15:05:48.144Z,6.70
2018-07-13T15:06:48.013Z,4.40
2018-07-13T15:09:30.077Z,6.30
2018-07-13T15:10:30.016Z,4.00
2018-07-13T15:11:29.955Z,4.70
2018-07-13T15:12:29.888Z,4.80
2018-07-13T15:13:29.786Z,6.20
2018-07-13T15:16:12.111Z,7.60
2018-07-13T15:17:12.048Z,7.20
2018-07-13T15:18:11.953Z,6.00
2018-07-13T15:19:11.900Z,6.00
2018-07-13T15:20:11.805Z,5.70
2018-07-13T15:22:54.143Z,4.20
2018-07-13T15:23:54.033Z,4.90
2018-07-13T15:24:53.970Z,5.50
2018-07-13T15:27:36.127Z,5.50
2018-07-13T15:28:37.060Z,4.60
2018-07-13T15:29:35.969Z,4.80
2018-07-13T15:30:35.881Z,6.30
2018-07-13T15:31:35.807Z,6.10
2018-07-13T15:32:35.776Z,6.60
2018-07-13T15:33:35.786Z,5.20
2018-07-13T15:34:35.605Z,3.80
2018-07-13T15:35:35.505Z,5.70
2018-07-13T15:36:35.452Z,3.80
2018-07-13T15:37:35.405Z,5.10
2018-07-13T15:40:17.602Z,4.20
2018-07-13T15:41:17.556Z,5.10
2018-07-13T15:42:17.620Z,5.80
2018-07-13T15:43:17.469Z,5.20
2018-07-13T15:44:17.314Z,4.20
2018-07-13T15:46:59.610Z,6.90
2018-07-13T15:47:59.588Z,5.20
2018-07-13T15:48:59.463Z,5.60
2018-07-13T15:49:59.407Z,4.10
2018-07-13T15:50:59.327Z,5.20
2018-07-13T15:51:59.264Z,6.10
2018-07-13T15:52:59.192Z,5.20
2018-07-13T15:53:59.117Z,7.70
2018-07-13T15:54:59.070Z,4.00
2018-07-13T15:55:58.980Z,3.80
2018-07-13T15:56:58.903Z,5.10
2018-07-13T15:57:58.987Z,5.20
2018-07-13T15:58:58.839Z,11.60
2018-07-13T15:59:58.700Z,46.90
2018-07-13T16:00:58.581Z,20.10
2018-07-13T16:01:58.604Z,20.00
2018-07-13T16:02:58.442Z,15.90
2018-07-13T16:03:58.475Z,13.40
2018-07-13T16:04:58.305Z,12.90
2018-07-13T16:05:58.327Z,8.00
2018-07-13T16:06:58.217Z,5.10
2018-07-13T16:07:58.149Z,4.50
2018-07-13T16:08:58.034Z,5.40
2018-07-13T16:09:57.992Z,4.70
2018-07-13T16:10:57.887Z,4.80
2018-07-13T16:11:57.867Z,3.80
2018-07-13T16:12:57.731Z,5.20
2018-07-13T16:13:57.727Z,6.30
2018-07-13T16:14:57.568Z,5.60
2018-07-13T16:15:57.576Z,4.60
2018-07-13T16:16:57.429Z,4.50
2018-07-13T16:17:57.398Z,4.20
2018-07-13T16:18:57.304Z,5.00
2018-07-13T16:19:57.312Z,5.40
2018-07-13T16:20:57.137Z,4.60
2018-07-13T16:21:57.121Z,5.30
2018-07-13T16:22:56.995Z,3.80
2018-07-13T16:23:57.067Z,5.20
2018-07-13T16:24:56.871Z,4.30
2018-07-13T16:25:56.837Z,4.50
2018-07-13T16:26:56.684Z,3.50
2018-07-13T16:27:56.664Z,3.90
2018-07-13T16:28:56.554Z,5.00
2018-07-13T16:29:56.576Z,3.50
2018-07-13T16:30:56.397Z,3.80
2018-07-13T16:31:56.348Z,4.90
2018-07-13T16:32:56.250Z,5.00
2018-07-13T16:33:56.276Z,4.10
2018-07-13T16:34:56.104Z,5.30
2018-07-13T16:35:56.064Z,5.00
2018-07-13T16:36:55.962Z,5.00
2018-07-13T16:37:55.980Z,3.70
2018-07-13T16:38:55.827Z,5.20
2018-07-13T16:39:55.880Z,6.10
2018-07-13T16:40:55.664Z,5.60
2018-07-13T16:41:55.706Z,4.10